sensor_id;sensor_type;location;lat;lon;timestamp;P1;durP1;ratioP1;P2;durP2;ratioP2
15202;SDS011;7702;51.046;5.184;2023-12-14T00:00:17;54.20;;;27.47;;
15202;SDS011;7702;51.046;5.184;2023-12-14T00:02:44;63.67;;;29.13;;
15202;SDS011;7702;51.046;5.184;2023-12-14T00:05:09;64.57;;;29.87;;
15202;SDS011;7702;51.046;5.184;2023-12-14T00:07:35;56.27;;;28.10;;
15202;SDS011;7702;51.046;5.184;2023-12-14T00:10:01;54.83;;;28.37;;
15202;SDS011;7702;51.046;5.184;2023-12-14T00:12:28;56.67;;;28.93;;
15202;SDS011;7702;51.046;5.184;2023-12-14T00:14:53;58.93;;;28.77;;
15202;SDS011;7702;51.046;5.184;2023-12-14T00:17:19;59.70;;;27.80;;
15202;SDS011;7702;51.046;5.184;2023-12-14T00:19:45;57.20;;;28.03;;
15202;SDS011;7702;51.046;5.184;2023-12-14T00:22:10;53.10;;;27.87;;
15202;SDS011;7702;51.046;5.184;2023-12-14T00:24:36;55.77;;;28.20;;
15202;SDS011;7702;51.046;5.184;2023-12-14T00:27:02;52.43;;;25.27;;
15202;SDS011;7702;51.046;5.184;2023-12-14T00:29:28;58.40;;;27.67;;
15202;SDS011;7702;51.046;5.184;2023-12-14T00:31:53;53.33;;;27.03;;
15202;SDS011;7702;51.046;5.184;2023-12-14T00:34:19;55.90;;;25.77;;
15202;SDS011;7702;51.046;5.184;2023-12-14T00:36:45;55.37;;;27.30;;
15202;SDS011;7702;51.046;5.184;2023-12-14T00:39:10;53.27;;;27.07;;
15202;SDS011;7702;51.046;5.184;2023-12-14T00:41:36;56.07;;;26.37;;
15202;SDS011;7702;51.046;5.184;2023-12-14T00:44:02;55.80;;;27.17;;
15202;SDS011;7702;51.046;5.184;2023-12-14T00:46:28;47.50;;;25.33;;
15202;SDS011;7702;51.046;5.184;2023-12-14T00:48:53;55.03;;;25.93;;
15202;SDS011;7702;51.046;5.184;2023-12-14T00:51:19;53.23;;;26.23;;
15202;SDS011;7702;51.046;5.184;2023-12-14T00:53:45;48.93;;;25.53;;
15202;SDS011;7702;51.046;5.184;2023-12-14T00:56:10;47.83;;;26.07;;
15202;SDS011;7702;51.046;5.184;2023-12-14T00:58:36;51.77;;;25.33;;
15202;SDS011;7702;51.046;5.184;2023-12-14T01:01:02;48.97;;;25.33;;
15202;SDS011;7702;51.046;5.184;2023-12-14T01:03:27;47.83;;;24.10;;
15202;SDS011;7702;51.046;5.184;2023-12-14T01:05:54;52.60;;;23.77;;
15202;SDS011;7702;51.046;5.184;2023-12-14T01:08:19;48.63;;;23.90;;
15202;SDS011;7702;51.046;5.184;2023-12-14T01:10:45;48.47;;;24.00;;
15202;SDS011;7702;51.046;5.184;2023-12-14T01:13:11;42.67;;;22.20;;
15202;SDS011;7702;51.046;5.184;2023-12-14T01:15:37;43.27;;;22.50;;
15202;SDS011;7702;51.046;5.184;2023-12-14T01:18:02;44.27;;;21.77;;
15202;SDS011;7702;51.046;5.184;2023-12-14T01:20:28;41.83;;;22.57;;
15202;SDS011;7702;51.046;5.184;2023-12-14T01:22:54;39.53;;;21.63;;
15202;SDS011;7702;51.046;5.184;2023-12-14T01:25:19;49.00;;;23.37;;
15202;SDS011;7702;51.046;5.184;2023-12-14T01:27:45;42.10;;;22.93;;
15202;SDS011;7702;51.046;5.184;2023-12-14T01:30:11;47.43;;;22.97;;
15202;SDS011;7702;51.046;5.184;2023-12-14T01:32:38;44.20;;;22.73;;
15202;SDS011;7702;51.046;5.184;2023-12-14T01:35:04;44.37;;;22.70;;
15202;SDS011;7702;51.046;5.184;2023-12-14T01:37:30;41.90;;;21.20;;
15202;SDS011;7702;51.046;5.184;2023-12-14T01:39:55;36.30;;;21.83;;
15202;SDS011;7702;51.046;5.184;2023-12-14T01:42:21;42.77;;;22.33;;
15202;SDS011;7702;51.046;5.184;2023-12-14T01:44:47;42.30;;;20.87;;
15202;SDS011;7702;51.046;5.184;2023-12-14T01:47:13;40.00;;;21.43;;
15202;SDS011;7702;51.046;5.184;2023-12-14T01:49:39;38.77;;;20.60;;
15202;SDS011;7702;51.046;5.184;2023-12-14T01:52:06;33.90;;;19.17;;
15202;SDS011;7702;51.046;5.184;2023-12-14T01:54:32;44.97;;;22.60;;
15202;SDS011;7702;51.046;5.184;2023-12-14T01:56:58;39.15;;;20.92;;
15202;SDS011;7702;51.046;5.184;2023-12-14T01:59:24;40.70;;;21.67;;
15202;SDS011;7702;51.046;5.184;2023-12-14T02:01:54;37.10;;;20.13;;
15202;SDS011;7702;51.046;5.184;2023-12-14T02:04:22;41.97;;;21.37;;
15202;SDS011;7702;51.046;5.184;2023-12-14T02:06:50;44.20;;;20.30;;
15202;SDS011;7702;51.046;5.184;2023-12-14T02:09:16;42.80;;;22.70;;
15202;SDS011;7702;51.046;5.184;2023-12-14T02:11:41;44.10;;;21.60;;
15202;SDS011;7702;51.046;5.184;2023-12-14T02:14:08;42.43;;;21.30;;
15202;SDS011;7702;51.046;5.184;2023-12-14T02:16:35;37.37;;;20.80;;
15202;SDS011;7702;51.046;5.184;2023-12-14T02:19:03;37.33;;;20.20;;
15202;SDS011;7702;51.046;5.184;2023-12-14T02:21:29;45.83;;;24.05;;
15202;SDS011;7702;51.046;5.184;2023-12-14T02:23:55;42.00;;;22.20;;
15202;SDS011;7702;51.046;5.184;2023-12-14T02:26:21;50.07;;;24.40;;
15202;SDS011;7702;51.046;5.184;2023-12-14T02:28:47;40.13;;;20.40;;
15202;SDS011;7702;51.046;5.184;2023-12-14T02:31:13;37.73;;;18.63;;
15202;SDS011;7702;51.046;5.184;2023-12-14T02:33:39;32.33;;;17.33;;
15202;SDS011;7702;51.046;5.184;2023-12-14T02:36:04;39.27;;;18.33;;
15202;SDS011;7702;51.046;5.184;2023-12-14T02:38:30;38.40;;;18.40;;
15202;SDS011;7702;51.046;5.184;2023-12-14T02:40:56;35.47;;;17.93;;
15202;SDS011;7702;51.046;5.184;2023-12-14T02:43:22;33.03;;;17.17;;
15202;SDS011;7702;51.046;5.184;2023-12-14T02:45:51;34.77;;;16.93;;
15202;SDS011;7702;51.046;5.184;2023-12-14T02:48:16;35.23;;;17.27;;
15202;SDS011;7702;51.046;5.184;2023-12-14T02:50:42;30.13;;;15.27;;
15202;SDS011;7702;51.046;5.184;2023-12-14T02:53:07;25.97;;;14.53;;
15202;SDS011;7702;51.046;5.184;2023-12-14T02:55:33;27.93;;;14.50;;
15202;SDS011;7702;51.046;5.184;2023-12-14T02:57:59;30.50;;;14.50;;
15202;SDS011;7702;51.046;5.184;2023-12-14T03:00:24;30.53;;;14.43;;
15202;SDS011;7702;51.046;5.184;2023-12-14T03:02:50;24.80;;;13.87;;
15202;SDS011;7702;51.046;5.184;2023-12-14T03:05:17;26.30;;;13.13;;
15202;SDS011;7702;51.046;5.184;2023-12-14T03:07:42;23.20;;;13.20;;
15202;SDS011;7702;51.046;5.184;2023-12-14T03:10:08;27.93;;;13.93;;
15202;SDS011;7702;51.046;5.184;2023-12-14T03:12:34;27.50;;;13.53;;
15202;SDS011;7702;51.046;5.184;2023-12-14T03:14:59;29.03;;;14.63;;
15202;SDS011;7702;51.046;5.184;2023-12-14T03:17:25;30.00;;;15.07;;
15202;SDS011;7702;51.046;5.184;2023-12-14T03:19:51;30.57;;;15.30;;
15202;SDS011;7702;51.046;5.184;2023-12-14T03:22:16;23.27;;;13.57;;
15202;SDS011;7702;51.046;5.184;2023-12-14T03:24:42;25.33;;;14.67;;
15202;SDS011;7702;51.046;5.184;2023-12-14T03:27:08;29.53;;;15.37;;
15202;SDS011;7702;51.046;5.184;2023-12-14T03:29:34;27.90;;;14.33;;
15202;SDS011;7702;51.046;5.184;2023-12-14T03:32:00;25.47;;;13.63;;
15202;SDS011;7702;51.046;5.184;2023-12-14T03:34:26;27.40;;;14.63;;
15202;SDS011;7702;51.046;5.184;2023-12-14T03:36:52;27.13;;;14.93;;
15202;SDS011;7702;51.046;5.184;2023-12-14T03:39:18;23.03;;;13.47;;
15202;SDS011;7702;51.046;5.184;2023-12-14T03:41:43;23.20;;;13.03;;
15202;SDS011;7702;51.046;5.184;2023-12-14T03:44:10;23.17;;;12.43;;
15202;SDS011;7702;51.046;5.184;2023-12-14T03:46:36;22.50;;;13.27;;
15202;SDS011;7702;51.046;5.184;2023-12-14T03:49:02;22.87;;;13.43;;
15202;SDS011;7702;51.046;5.184;2023-12-14T03:51:28;26.17;;;14.20;;
15202;SDS011;7702;51.046;5.184;2023-12-14T03:53:54;25.43;;;13.93;;
15202;SDS011;7702;51.046;5.184;2023-12-14T03:56:20;25.30;;;13.77;;
15202;SDS011;7702;51.046;5.184;2023-12-14T03:58:45;29.20;;;16.10;;
15202;SDS011;7702;51.046;5.184;2023-12-14T04:01:18;27.17;;;14.97;;
15202;SDS011;7702;51.046;5.184;2023-12-14T04:03:44;25.70;;;14.23;;
15202;SDS011;7702;51.046;5.184;2023-12-14T04:06:13;24.70;;;14.70;;
15202;SDS011;7702;51.046;5.184;2023-12-14T04:08:40;25.20;;;15.80;;
15202;SDS011;7702;51.046;5.184;2023-12-14T04:11:06;26.07;;;15.00;;
15202;SDS011;7702;51.046;5.184;2023-12-14T04:13:32;26.47;;;14.57;;
15202;SDS011;7702;51.046;5.184;2023-12-14T04:15:58;23.67;;;13.60;;
15202;SDS011;7702;51.046;5.184;2023-12-14T04:18:24;19.70;;;12.13;;
15202;SDS011;7702;51.046;5.184;2023-12-14T04:20:50;19.10;;;11.00;;
15202;SDS011;7702;51.046;5.184;2023-12-14T04:23:16;19.67;;;11.40;;
15202;SDS011;7702;51.046;5.184;2023-12-14T04:25:41;21.70;;;12.87;;
15202;SDS011;7702;51.046;5.184;2023-12-14T04:28:07;21.37;;;11.27;;
15202;SDS011;7702;51.046;5.184;2023-12-14T04:30:33;22.10;;;11.97;;
15202;SDS011;7702;51.046;5.184;2023-12-14T04:32:58;19.97;;;10.97;;
15202;SDS011;7702;51.046;5.184;2023-12-14T04:35:24;15.87;;;10.43;;
15202;SDS011;7702;51.046;5.184;2023-12-14T04:37:50;25.47;;;13.27;;
15202;SDS011;7702;51.046;5.184;2023-12-14T04:40:16;21.33;;;12.93;;
15202;SDS011;7702;51.046;5.184;2023-12-14T04:42:42;22.73;;;13.80;;
15202;SDS011;7702;51.046;5.184;2023-12-14T04:45:07;22.90;;;14.03;;
15202;SDS011;7702;51.046;5.184;2023-12-14T04:47:34;19.93;;;12.63;;
15202;SDS011;7702;51.046;5.184;2023-12-14T04:50:01;22.20;;;13.13;;
15202;SDS011;7702;51.046;5.184;2023-12-14T04:52:27;19.63;;;12.57;;
15202;SDS011;7702;51.046;5.184;2023-12-14T04:54:52;20.90;;;12.90;;
15202;SDS011;7702;51.046;5.184;2023-12-14T04:57:18;20.40;;;12.20;;
15202;SDS011;7702;51.046;5.184;2023-12-14T04:59:44;20.23;;;12.50;;
15202;SDS011;7702;51.046;5.184;2023-12-14T05:02:09;21.67;;;14.33;;
15202;SDS011;7702;51.046;5.184;2023-12-14T05:04:35;21.33;;;12.90;;
15202;SDS011;7702;51.046;5.184;2023-12-14T05:07:01;22.27;;;13.67;;
15202;SDS011;7702;51.046;5.184;2023-12-14T05:09:27;20.97;;;13.43;;
15202;SDS011;7702;51.046;5.184;2023-12-14T05:11:53;23.20;;;14.03;;
15202;SDS011;7702;51.046;5.184;2023-12-14T05:14:19;18.57;;;13.13;;
15202;SDS011;7702;51.046;5.184;2023-12-14T05:16:45;20.90;;;13.50;;
15202;SDS011;7702;51.046;5.184;2023-12-14T05:19:10;24.57;;;15.17;;
15202;SDS011;7702;51.046;5.184;2023-12-14T05:21:37;22.43;;;15.13;;
15202;SDS011;7702;51.046;5.184;2023-12-14T05:24:03;20.90;;;13.63;;
15202;SDS011;7702;51.046;5.184;2023-12-14T05:26:29;18.97;;;13.63;;
15202;SDS011;7702;51.046;5.184;2023-12-14T05:28:55;20.47;;;14.60;;
15202;SDS011;7702;51.046;5.184;2023-12-14T05:31:20;21.53;;;13.50;;
15202;SDS011;7702;51.046;5.184;2023-12-14T05:33:46;19.10;;;12.17;;
15202;SDS011;7702;51.046;5.184;2023-12-14T05:36:12;15.50;;;12.00;;
15202;SDS011;7702;51.046;5.184;2023-12-14T05:38:38;20.77;;;13.50;;
15202;SDS011;7702;51.046;5.184;2023-12-14T05:41:04;20.97;;;12.93;;
15202;SDS011;7702;51.046;5.184;2023-12-14T05:43:30;18.97;;;13.63;;
15202;SDS011;7702;51.046;5.184;2023-12-14T05:45:56;20.20;;;13.73;;
15202;SDS011;7702;51.046;5.184;2023-12-14T05:48:22;19.70;;;14.10;;
15202;SDS011;7702;51.046;5.184;2023-12-14T05:50:48;20.17;;;14.30;;
15202;SDS011;7702;51.046;5.184;2023-12-14T05:53:14;23.50;;;14.80;;
15202;SDS011;7702;51.046;5.184;2023-12-14T05:55:39;21.87;;;14.70;;
15202;SDS011;7702;51.046;5.184;2023-12-14T05:58:06;23.23;;;15.17;;
15202;SDS011;7702;51.046;5.184;2023-12-14T06:00:32;22.13;;;15.20;;
15202;SDS011;7702;51.046;5.184;2023-12-14T06:02:59;24.43;;;15.80;;
15202;SDS011;7702;51.046;5.184;2023-12-14T06:05:25;34.17;;;17.33;;
15202;SDS011;7702;51.046;5.184;2023-12-14T06:07:51;25.87;;;17.70;;
15202;SDS011;7702;51.046;5.184;2023-12-14T06:10:16;26.70;;;17.57;;
15202;SDS011;7702;51.046;5.184;2023-12-14T06:12:42;26.47;;;18.03;;
15202;SDS011;7702;51.046;5.184;2023-12-14T06:15:08;26.30;;;17.60;;
15202;SDS011;7702;51.046;5.184;2023-12-14T06:17:34;27.10;;;18.57;;
15202;SDS011;7702;51.046;5.184;2023-12-14T06:20:02;26.90;;;18.40;;
15202;SDS011;7702;51.046;5.184;2023-12-14T06:22:29;24.43;;;16.33;;
15202;SDS011;7702;51.046;5.184;2023-12-14T06:24:54;21.03;;;16.43;;
15202;SDS011;7702;51.046;5.184;2023-12-14T06:27:21;21.33;;;14.77;;
15202;SDS011;7702;51.046;5.184;2023-12-14T06:29:51;23.57;;;15.10;;
15202;SDS011;7702;51.046;5.184;2023-12-14T06:32:17;20.97;;;13.30;;
15202;SDS011;7702;51.046;5.184;2023-12-14T06:34:42;19.40;;;13.60;;
15202;SDS011;7702;51.046;5.184;2023-12-14T06:37:08;20.70;;;13.20;;
15202;SDS011;7702;51.046;5.184;2023-12-14T06:39:34;21.87;;;13.70;;
15202;SDS011;7702;51.046;5.184;2023-12-14T06:42:00;22.83;;;13.90;;
15202;SDS011;7702;51.046;5.184;2023-12-14T06:44:26;19.10;;;13.97;;
15202;SDS011;7702;51.046;5.184;2023-12-14T06:46:53;20.83;;;14.37;;
15202;SDS011;7702;51.046;5.184;2023-12-14T06:49:19;20.53;;;13.53;;
15202;SDS011;7702;51.046;5.184;2023-12-14T06:51:45;20.20;;;15.50;;
15202;SDS011;7702;51.046;5.184;2023-12-14T06:54:11;19.27;;;14.23;;
15202;SDS011;7702;51.046;5.184;2023-12-14T06:56:36;19.97;;;14.20;;
15202;SDS011;7702;51.046;5.184;2023-12-14T06:59:02;23.70;;;15.27;;
15202;SDS011;7702;51.046;5.184;2023-12-14T07:01:28;25.10;;;15.57;;
15202;SDS011;7702;51.046;5.184;2023-12-14T07:03:54;25.93;;;15.70;;
15202;SDS011;7702;51.046;5.184;2023-12-14T07:06:20;22.17;;;15.77;;
15202;SDS011;7702;51.046;5.184;2023-12-14T07:08:46;26.43;;;16.20;;
15202;SDS011;7702;51.046;5.184;2023-12-14T07:11:12;26.00;;;16.97;;
15202;SDS011;7702;51.046;5.184;2023-12-14T07:13:39;22.53;;;15.67;;
15202;SDS011;7702;51.046;5.184;2023-12-14T07:16:05;21.87;;;15.67;;
15202;SDS011;7702;51.046;5.184;2023-12-14T07:18:37;23.57;;;15.00;;
15202;SDS011;7702;51.046;5.184;2023-12-14T07:21:06;24.70;;;15.83;;
15202;SDS011;7702;51.046;5.184;2023-12-14T07:23:32;22.43;;;15.50;;
15202;SDS011;7702;51.046;5.184;2023-12-14T07:25:58;25.40;;;15.80;;
15202;SDS011;7702;51.046;5.184;2023-12-14T07:28:24;27.10;;;16.67;;
15202;SDS011;7702;51.046;5.184;2023-12-14T07:30:51;25.30;;;16.40;;
15202;SDS011;7702;51.046;5.184;2023-12-14T07:33:16;25.37;;;16.63;;
15202;SDS011;7702;51.046;5.184;2023-12-14T07:35:42;25.10;;;16.63;;
15202;SDS011;7702;51.046;5.184;2023-12-14T07:38:09;29.17;;;16.50;;
15202;SDS011;7702;51.046;5.184;2023-12-14T07:40:35;26.87;;;17.17;;
15202;SDS011;7702;51.046;5.184;2023-12-14T07:43:00;31.20;;;17.33;;
15202;SDS011;7702;51.046;5.184;2023-12-14T07:45:27;26.77;;;16.00;;
15202;SDS011;7702;51.046;5.184;2023-12-14T07:47:52;27.27;;;16.57;;
15202;SDS011;7702;51.046;5.184;2023-12-14T07:50:19;25.27;;;17.07;;
15202;SDS011;7702;51.046;5.184;2023-12-14T07:52:44;28.80;;;16.77;;
15202;SDS011;7702;51.046;5.184;2023-12-14T07:55:10;26.03;;;15.47;;
15202;SDS011;7702;51.046;5.184;2023-12-14T07:57:38;24.17;;;15.87;;
15202;SDS011;7702;51.046;5.184;2023-12-14T08:00:04;25.03;;;16.83;;
15202;SDS011;7702;51.046;5.184;2023-12-14T08:02:30;25.73;;;16.70;;
15202;SDS011;7702;51.046;5.184;2023-12-14T08:04:56;26.80;;;15.33;;
15202;SDS011;7702;51.046;5.184;2023-12-14T08:07:22;23.10;;;15.57;;
15202;SDS011;7702;51.046;5.184;2023-12-14T08:09:47;26.53;;;16.50;;
15202;SDS011;7702;51.046;5.184;2023-12-14T08:12:13;21.67;;;15.77;;
15202;SDS011;7702;51.046;5.184;2023-12-14T08:14:39;25.17;;;14.93;;
15202;SDS011;7702;51.046;5.184;2023-12-14T08:17:08;26.60;;;15.87;;
15202;SDS011;7702;51.046;5.184;2023-12-14T08:19:34;22.80;;;15.13;;
15202;SDS011;7702;51.046;5.184;2023-12-14T08:22:00;29.10;;;15.77;;
15202;SDS011;7702;51.046;5.184;2023-12-14T08:24:25;23.03;;;14.97;;
15202;SDS011;7702;51.046;5.184;2023-12-14T08:26:52;24.50;;;15.23;;
15202;SDS011;7702;51.046;5.184;2023-12-14T08:29:17;20.50;;;14.80;;
15202;SDS011;7702;51.046;5.184;2023-12-14T08:31:43;20.93;;;14.23;;
15202;SDS011;7702;51.046;5.184;2023-12-14T08:34:09;23.47;;;14.53;;
15202;SDS011;7702;51.046;5.184;2023-12-14T08:36:34;20.17;;;14.30;;
15202;SDS011;7702;51.046;5.184;2023-12-14T08:39:00;24.33;;;15.30;;
15202;SDS011;7702;51.046;5.184;2023-12-14T08:41:26;21.83;;;15.13;;
15202;SDS011;7702;51.046;5.184;2023-12-14T08:43:52;22.03;;;15.73;;
15202;SDS011;7702;51.046;5.184;2023-12-14T08:46:17;26.97;;;16.27;;
15202;SDS011;7702;51.046;5.184;2023-12-14T08:48:43;25.50;;;15.67;;
15202;SDS011;7702;51.046;5.184;2023-12-14T08:51:09;25.60;;;16.50;;
15202;SDS011;7702;51.046;5.184;2023-12-14T08:53:34;23.07;;;15.33;;
15202;SDS011;7702;51.046;5.184;2023-12-14T08:56:00;20.63;;;14.53;;
15202;SDS011;7702;51.046;5.184;2023-12-14T08:58:27;20.47;;;15.07;;
15202;SDS011;7702;51.046;5.184;2023-12-14T09:00:53;19.47;;;13.50;;
15202;SDS011;7702;51.046;5.184;2023-12-14T09:03:19;20.07;;;14.00;;
15202;SDS011;7702;51.046;5.184;2023-12-14T09:05:45;22.00;;;13.30;;
15202;SDS011;7702;51.046;5.184;2023-12-14T09:08:11;18.93;;;12.87;;
15202;SDS011;7702;51.046;5.184;2023-12-14T09:10:37;16.47;;;11.23;;
15202;SDS011;7702;51.046;5.184;2023-12-14T09:13:03;19.57;;;13.13;;
15202;SDS011;7702;51.046;5.184;2023-12-14T09:15:32;18.30;;;12.03;;
15202;SDS011;7702;51.046;5.184;2023-12-14T09:17:58;19.20;;;12.83;;
15202;SDS011;7702;51.046;5.184;2023-12-14T09:20:24;20.37;;;12.33;;
15202;SDS011;7702;51.046;5.184;2023-12-14T09:22:50;18.37;;;11.60;;
15202;SDS011;7702;51.046;5.184;2023-12-14T09:25:17;21.40;;;12.87;;
15202;SDS011;7702;51.046;5.184;2023-12-14T09:27:43;18.97;;;11.73;;
15202;SDS011;7702;51.046;5.184;2023-12-14T09:30:09;19.17;;;12.57;;
15202;SDS011;7702;51.046;5.184;2023-12-14T09:32:35;17.70;;;11.77;;
15202;SDS011;7702;51.046;5.184;2023-12-14T09:35:01;19.10;;;11.87;;
15202;SDS011;7702;51.046;5.184;2023-12-14T09:37:27;16.80;;;12.00;;
15202;SDS011;7702;51.046;5.184;2023-12-14T09:39:53;15.90;;;11.93;;
15202;SDS011;7702;51.046;5.184;2023-12-14T09:42:19;16.47;;;11.23;;
15202;SDS011;7702;51.046;5.184;2023-12-14T09:44:46;18.00;;;11.43;;
15202;SDS011;7702;51.046;5.184;2023-12-14T09:47:13;16.90;;;11.03;;
15202;SDS011;7702;51.046;5.184;2023-12-14T09:49:39;16.57;;;11.67;;
15202;SDS011;7702;51.046;5.184;2023-12-14T09:52:08;28.73;;;15.13;;
15202;SDS011;7702;51.046;5.184;2023-12-14T09:54:34;20.83;;;12.37;;
15202;SDS011;7702;51.046;5.184;2023-12-14T09:57:00;17.10;;;11.47;;
15202;SDS011;7702;51.046;5.184;2023-12-14T09:59:26;19.70;;;10.73;;
15202;SDS011;7702;51.046;5.184;2023-12-14T10:01:51;16.70;;;9.77;;
15202;SDS011;7702;51.046;5.184;2023-12-14T10:04:18;13.80;;;9.17;;
15202;SDS011;7702;51.046;5.184;2023-12-14T10:06:45;13.97;;;9.27;;
15202;SDS011;7702;51.046;5.184;2023-12-14T10:09:12;11.20;;;8.43;;
15202;SDS011;7702;51.046;5.184;2023-12-14T10:11:39;12.10;;;8.33;;
15202;SDS011;7702;51.046;5.184;2023-12-14T10:14:18;10.97;;;7.53;;
15202;SDS011;7702;51.046;5.184;2023-12-14T10:16:47;10.57;;;7.47;;
15202;SDS011;7702;51.046;5.184;2023-12-14T10:19:14;10.23;;;6.83;;
15202;SDS011;7702;51.046;5.184;2023-12-14T10:21:41;13.60;;;7.47;;
15202;SDS011;7702;51.046;5.184;2023-12-14T10:24:07;10.27;;;7.17;;
15202;SDS011;7702;51.046;5.184;2023-12-14T10:26:34;13.30;;;7.90;;
15202;SDS011;7702;51.046;5.184;2023-12-14T10:29:01;11.00;;;7.20;;
15202;SDS011;7702;51.046;5.184;2023-12-14T10:31:29;8.90;;;7.20;;
15202;SDS011;7702;51.046;5.184;2023-12-14T10:33:56;10.43;;;7.30;;
15202;SDS011;7702;51.046;5.184;2023-12-14T10:36:24;8.17;;;6.37;;
15202;SDS011;7702;51.046;5.184;2023-12-14T10:38:55;7.80;;;6.90;;
15202;SDS011;7702;51.046;5.184;2023-12-14T10:41:23;10.83;;;7.47;;
15202;SDS011;7702;51.046;5.184;2023-12-14T10:43:50;8.20;;;6.17;;
15202;SDS011;7702;51.046;5.184;2023-12-14T10:46:18;10.00;;;6.83;;
15202;SDS011;7702;51.046;5.184;2023-12-14T10:48:47;8.40;;;6.07;;
15202;SDS011;7702;51.046;5.184;2023-12-14T10:51:14;9.03;;;6.70;;
15202;SDS011;7702;51.046;5.184;2023-12-14T10:53:42;7.20;;;5.80;;
15202;SDS011;7702;51.046;5.184;2023-12-14T10:56:12;9.23;;;6.47;;
15202;SDS011;7702;51.046;5.184;2023-12-14T11:01:33;9.57;;;7.17;;
15202;SDS011;7702;51.046;5.184;2023-12-14T11:04:01;9.63;;;6.73;;
15202;SDS011;7702;51.046;5.184;2023-12-14T11:06:28;9.43;;;7.60;;
15202;SDS011;7702;51.046;5.184;2023-12-14T11:09:00;9.20;;;7.80;;
15202;SDS011;7702;51.046;5.184;2023-12-14T11:11:31;11.33;;;7.53;;
15202;SDS011;7702;51.046;5.184;2023-12-14T11:14:05;9.93;;;7.27;;
15202;SDS011;7702;51.046;5.184;2023-12-14T11:16:33;9.13;;;7.17;;
15202;SDS011;7702;51.046;5.184;2023-12-14T11:24:20;8.97;;;6.80;;
15202;SDS011;7702;51.046;5.184;2023-12-14T11:26:48;10.03;;;7.13;;
15202;SDS011;7702;51.046;5.184;2023-12-14T11:29:14;8.57;;;7.07;;
15202;SDS011;7702;51.046;5.184;2023-12-14T11:31:41;13.03;;;8.63;;
15202;SDS011;7702;51.046;5.184;2023-12-14T11:34:06;13.10;;;8.60;;
15202;SDS011;7702;51.046;5.184;2023-12-14T11:36:32;12.27;;;8.53;;
15202;SDS011;7702;51.046;5.184;2023-12-14T11:38:58;11.87;;;8.03;;
15202;SDS011;7702;51.046;5.184;2023-12-14T11:41:24;11.43;;;8.40;;
15202;SDS011;7702;51.046;5.184;2023-12-14T11:43:50;8.97;;;7.30;;
15202;SDS011;7702;51.046;5.184;2023-12-14T11:46:17;8.63;;;7.33;;
15202;SDS011;7702;51.046;5.184;2023-12-14T11:48:46;7.87;;;6.97;;
15202;SDS011;7702;51.046;5.184;2023-12-14T11:51:14;7.23;;;6.20;;
15202;SDS011;7702;51.046;5.184;2023-12-14T11:53:44;8.10;;;6.00;;
15202;SDS011;7702;51.046;5.184;2023-12-14T11:56:11;7.53;;;6.20;;
15202;SDS011;7702;51.046;5.184;2023-12-14T11:58:40;8.50;;;6.47;;
15202;SDS011;7702;51.046;5.184;2023-12-14T12:03:46;8.70;;;6.60;;
15202;SDS011;7702;51.046;5.184;2023-12-14T12:08:47;11.33;;;9.00;;
15202;SDS011;7702;51.046;5.184;2023-12-14T12:11:20;15.73;;;10.27;;
15202;SDS011;7702;51.046;5.184;2023-12-14T12:13:50;13.43;;;9.90;;
15202;SDS011;7702;51.046;5.184;2023-12-14T12:16:16;13.17;;;9.50;;
15202;SDS011;7702;51.046;5.184;2023-12-14T12:18:42;11.60;;;8.53;;
15202;SDS011;7702;51.046;5.184;2023-12-14T12:21:08;9.90;;;8.43;;
15202;SDS011;7702;51.046;5.184;2023-12-14T12:23:34;11.70;;;8.87;;
15202;SDS011;7702;51.046;5.184;2023-12-14T12:26:00;10.37;;;7.97;;
15202;SDS011;7702;51.046;5.184;2023-12-14T12:28:26;12.97;;;8.23;;
15202;SDS011;7702;51.046;5.184;2023-12-14T12:30:52;11.10;;;8.43;;
15202;SDS011;7702;51.046;5.184;2023-12-14T12:33:18;11.40;;;8.20;;
15202;SDS011;7702;51.046;5.184;2023-12-14T12:35:45;11.27;;;8.90;;
15202;SDS011;7702;51.046;5.184;2023-12-14T12:38:11;10.03;;;8.40;;
15202;SDS011;7702;51.046;5.184;2023-12-14T12:40:37;9.43;;;8.43;;
15202;SDS011;7702;51.046;5.184;2023-12-14T12:43:03;11.23;;;9.20;;
15202;SDS011;7702;51.046;5.184;2023-12-14T12:45:29;8.90;;;8.00;;
15202;SDS011;7702;51.046;5.184;2023-12-14T12:47:57;12.37;;;8.97;;
15202;SDS011;7702;51.046;5.184;2023-12-14T12:50:22;11.30;;;8.60;;
15202;SDS011;7702;51.046;5.184;2023-12-14T12:52:48;11.13;;;7.93;;
15202;SDS011;7702;51.046;5.184;2023-12-14T12:55:14;10.70;;;7.70;;
15202;SDS011;7702;51.046;5.184;2023-12-14T12:57:41;14.60;;;8.70;;
15202;SDS011;7702;51.046;5.184;2023-12-14T13:00:07;10.13;;;8.30;;
15202;SDS011;7702;51.046;5.184;2023-12-14T13:02:39;11.77;;;8.20;;
15202;SDS011;7702;51.046;5.184;2023-12-14T13:05:07;10.80;;;7.67;;
15202;SDS011;7702;51.046;5.184;2023-12-14T13:07:34;13.67;;;8.70;;
15202;SDS011;7702;51.046;5.184;2023-12-14T13:10:01;8.93;;;7.67;;
15202;SDS011;7702;51.046;5.184;2023-12-14T13:12:28;12.07;;;8.80;;
15202;SDS011;7702;51.046;5.184;2023-12-14T13:14:54;8.60;;;7.70;;
15202;SDS011;7702;51.046;5.184;2023-12-14T13:17:20;9.10;;;7.20;;
15202;SDS011;7702;51.046;5.184;2023-12-14T13:19:45;12.63;;;8.77;;
15202;SDS011;7702;51.046;5.184;2023-12-14T13:22:11;12.40;;;8.57;;
15202;SDS011;7702;51.046;5.184;2023-12-14T13:24:37;12.07;;;7.87;;
15202;SDS011;7702;51.046;5.184;2023-12-14T13:27:03;10.33;;;8.13;;
15202;SDS011;7702;51.046;5.184;2023-12-14T13:29:30;10.90;;;8.23;;
15202;SDS011;7702;51.046;5.184;2023-12-14T13:32:00;10.67;;;8.23;;
15202;SDS011;7702;51.046;5.184;2023-12-14T13:34:26;9.07;;;7.70;;
15202;SDS011;7702;51.046;5.184;2023-12-14T13:36:55;9.30;;;7.37;;
15202;SDS011;7702;51.046;5.184;2023-12-14T13:39:22;11.93;;;8.37;;
15202;SDS011;7702;51.046;5.184;2023-12-14T13:41:48;10.53;;;8.47;;
15202;SDS011;7702;51.046;5.184;2023-12-14T13:44:13;9.47;;;8.17;;
15202;SDS011;7702;51.046;5.184;2023-12-14T13:46:40;10.77;;;7.43;;
15202;SDS011;7702;51.046;5.184;2023-12-14T13:49:05;9.40;;;7.70;;
15202;SDS011;7702;51.046;5.184;2023-12-14T13:51:31;10.43;;;8.67;;
15202;SDS011;7702;51.046;5.184;2023-12-14T13:53:57;11.00;;;8.47;;
15202;SDS011;7702;51.046;5.184;2023-12-14T13:56:23;10.30;;;8.10;;
15202;SDS011;7702;51.046;5.184;2023-12-14T13:58:48;12.30;;;8.97;;
15202;SDS011;7702;51.046;5.184;2023-12-14T14:01:14;11.93;;;9.73;;
15202;SDS011;7702;51.046;5.184;2023-12-14T14:03:43;14.33;;;10.17;;
15202;SDS011;7702;51.046;5.184;2023-12-14T14:06:11;15.57;;;12.00;;
15202;SDS011;7702;51.046;5.184;2023-12-14T14:08:37;17.00;;;12.77;;
15202;SDS011;7702;51.046;5.184;2023-12-14T14:11:03;19.63;;;14.83;;
15202;SDS011;7702;51.046;5.184;2023-12-14T14:13:29;21.77;;;15.63;;
15202;SDS011;7702;51.046;5.184;2023-12-14T14:15:55;21.97;;;15.90;;
15202;SDS011;7702;51.046;5.184;2023-12-14T14:18:21;22.67;;;16.27;;
15202;SDS011;7702;51.046;5.184;2023-12-14T14:20:46;22.90;;;17.67;;
15202;SDS011;7702;51.046;5.184;2023-12-14T14:23:12;24.67;;;17.70;;
15202;SDS011;7702;51.046;5.184;2023-12-14T14:25:38;24.93;;;17.63;;
15202;SDS011;7702;51.046;5.184;2023-12-14T14:28:05;21.63;;;15.97;;
15202;SDS011;7702;51.046;5.184;2023-12-14T14:30:31;22.27;;;14.67;;
15202;SDS011;7702;51.046;5.184;2023-12-14T14:32:57;19.27;;;12.97;;
15202;SDS011;7702;51.046;5.184;2023-12-14T14:35:22;19.10;;;12.90;;
15202;SDS011;7702;51.046;5.184;2023-12-14T14:37:52;19.13;;;11.53;;
15202;SDS011;7702;51.046;5.184;2023-12-14T14:40:17;14.43;;;10.30;;
15202;SDS011;7702;51.046;5.184;2023-12-14T14:42:43;14.33;;;10.27;;
15202;SDS011;7702;51.046;5.184;2023-12-14T14:45:09;15.57;;;10.50;;